sensor_id;sensor_type;location;lat;lon;timestamp;pressure;altitude;pressure_sealevel;temperature;humidity
78056;BME280;67666;55.862;49.094;2023-02-21T00:00:35;98499.03;;;25.18;12.11
78056;BME280;67666;55.862;49.094;2023-02-21T00:03:20;98506.47;;;25.25;12.23
78056;BME280;67666;55.862;49.094;2023-02-21T00:06:08;98497.63;;;25.26;12.05
78056;BME280;67666;55.862;49.094;2023-02-21T00:08:53;98500.06;;;25.01;12.26
78056;BME280;67666;55.862;49.094;2023-02-21T00:11:43;98501.38;;;25.22;11.87
78056;BME280;67666;55.862;49.094;2023-02-21T00:14:28;98491.53;;;25.26;12.37
78056;BME280;67666;55.862;49.094;2023-02-21T00:17:13;98485.72;;;25.06;12.26
78056;BME280;67666;55.862;49.094;2023-02-21T00:19:58;98487.56;;;25.33;11.87
78056;BME280;67666;55.862;49.094;2023-02-21T00:22:44;98491.28;;;25.43;12.30
78056;BME280;67666;55.862;49.094;2023-02-21T00:25:29;98484.66;;;25.37;11.96
78056;BME280;67666;55.862;49.094;2023-02-21T00:28:14;98482.38;;;25.19;12.36
78056;BME280;67666;55.862;49.094;2023-02-21T00:30:59;98485.25;;;25.00;12.27
78056;BME280;67666;55.862;49.094;2023-02-21T00:33:44;98480.94;;;24.84;12.51
78056;BME280;67666;55.862;49.094;2023-02-21T00:36:29;98482.81;;;25.25;12.26
78056;BME280;67666;55.862;49.094;2023-02-21T00:39:14;98475.31;;;25.19;12.42
78056;BME280;67666;55.862;49.094;2023-02-21T00:41:59;98477.69;;;25.09;12.40
78056;BME280;67666;55.862;49.094;2023-02-21T00:44:44;98461.41;;;25.17;12.27
78056;BME280;67666;55.862;49.094;2023-02-21T00:47:29;98471.13;;;25.44;12.36
78056;BME280;67666;55.862;49.094;2023-02-21T00:50:14;98465.78;;;25.58;12.03
78056;BME280;67666;55.862;49.094;2023-02-21T00:52:58;98466.53;;;25.33;12.60
78056;BME280;67666;55.862;49.094;2023-02-21T00:55:44;98467.44;;;25.46;12.49
78056;BME280;67666;55.862;49.094;2023-02-21T00:58:29;98465.72;;;25.32;12.53
78056;BME280;67666;55.862;49.094;2023-02-21T01:01:14;98470.59;;;25.24;12.48
78056;BME280;67666;55.862;49.094;2023-02-21T01:03:59;98461.09;;;25.36;12.60
78056;BME280;67666;55.862;49.094;2023-02-21T01:06:45;98461.06;;;25.63;12.33
78056;BME280;67666;55.862;49.094;2023-02-21T01:09:30;98459.94;;;25.13;13.00
78056;BME280;67666;55.862;49.094;2023-02-21T01:12:15;98454.31;;;25.19;12.54
78056;BME280;67666;55.862;49.094;2023-02-21T01:15:01;98457.97;;;25.44;12.45
78056;BME280;67666;55.862;49.094;2023-02-21T01:17:46;98455.69;;;25.52;11.78
78056;BME280;67666;55.862;49.094;2023-02-21T01:20:31;98465.63;;;25.47;12.45
78056;BME280;67666;55.862;49.094;2023-02-21T01:23:16;98464.41;;;25.25;12.73
78056;BME280;67666;55.862;49.094;2023-02-21T01:26:02;98468.66;;;25.82;12.41
78056;BME280;67666;55.862;49.094;2023-02-21T01:28:48;98463.41;;;25.68;12.46
78056;BME280;67666;55.862;49.094;2023-02-21T01:31:32;98466.16;;;25.66;12.29
78056;BME280;67666;55.862;49.094;2023-02-21T01:34:17;98465.00;;;25.70;12.47
78056;BME280;67666;55.862;49.094;2023-02-21T01:37:01;98468.47;;;25.44;12.64
78056;BME280;67666;55.862;49.094;2023-02-21T01:39:48;98466.84;;;25.28;12.86
78056;BME280;67666;55.862;49.094;2023-02-21T01:42:33;98463.41;;;25.41;12.84
78056;BME280;67666;55.862;49.094;2023-02-21T01:48:12;98461.06;;;24.95;12.87
78056;BME280;67666;55.862;49.094;2023-02-21T01:50:59;98456.84;;;25.48;12.91
78056;BME280;67666;55.862;49.094;2023-02-21T01:53:45;98461.47;;;25.57;13.31
78056;BME280;67666;55.862;49.094;2023-02-21T01:56:30;98450.19;;;25.42;12.73
78056;BME280;67666;55.862;49.094;2023-02-21T01:59:17;98455.06;;;25.48;13.06
78056;BME280;67666;55.862;49.094;2023-02-21T02:02:36;98452.34;;;25.35;12.96
78056;BME280;67666;55.862;49.094;2023-02-21T02:05:21;98446.19;;;25.36;13.11
78056;BME280;67666;55.862;49.094;2023-02-21T02:08:07;98450.03;;;25.31;13.51
78056;BME280;67666;55.862;49.094;2023-02-21T02:11:18;98444.38;;;25.10;12.77
78056;BME280;67666;55.862;49.094;2023-02-21T02:14:23;98436.84;;;25.18;13.21
78056;BME280;67666;55.862;49.094;2023-02-21T02:26:31;98432.28;;;25.34;12.84
78056;BME280;67666;55.862;49.094;2023-02-21T02:29:47;98438.53;;;25.19;13.14
78056;BME280;67666;55.862;49.094;2023-02-21T02:37:56;98430.72;;;25.18;12.85
78056;BME280;67666;55.862;49.094;2023-02-21T02:45:55;98422.81;;;25.32;12.94
78056;BME280;67666;55.862;49.094;2023-02-21T02:48:33;98426.13;;;25.21;13.11
78056;BME280;67666;55.862;49.094;2023-02-21T02:51:04;98424.00;;;25.41;13.04
78056;BME280;67666;55.862;49.094;2023-02-21T02:53:32;98418.16;;;25.23;13.12
78056;BME280;67666;55.862;49.094;2023-02-21T02:56:02;98417.03;;;25.27;13.06
78056;BME280;67666;55.862;49.094;2023-02-21T02:58:40;98413.47;;;25.41;13.11
78056;BME280;67666;55.862;49.094;2023-02-21T03:01:37;98410.78;;;25.15;13.01
78056;BME280;67666;55.862;49.094;2023-02-21T03:15:27;98402.53;;;25.07;13.56
78056;BME280;67666;55.862;49.094;2023-02-21T03:20:51;98403.72;;;25.43;13.26
78056;BME280;67666;55.862;49.094;2023-02-21T03:23:20;98395.00;;;25.15;13.48
78056;BME280;67666;55.862;49.094;2023-02-21T03:25:49;98405.81;;;25.37;13.11
78056;BME280;67666;55.862;49.094;2023-02-21T03:28:17;98406.00;;;25.34;13.43
78056;BME280;67666;55.862;49.094;2023-02-21T03:30:48;98399.34;;;25.56;13.52
78056;BME280;67666;55.862;49.094;2023-02-21T03:33:17;98402.75;;;25.31;13.24
78056;BME280;67666;55.862;49.094;2023-02-21T03:35:44;98397.09;;;25.10;13.39
78056;BME280;67666;55.862;49.094;2023-02-21T03:38:11;98394.91;;;25.17;13.44
78056;BME280;67666;55.862;49.094;2023-02-21T03:40:37;98399.44;;;25.42;13.35
78056;BME280;67666;55.862;49.094;2023-02-21T03:43:05;98393.53;;;25.11;13.56
78056;BME280;67666;55.862;49.094;2023-02-21T03:45:48;98398.59;;;25.00;14.03
78056;BME280;67666;55.862;49.094;2023-02-21T03:48:17;98393.88;;;25.05;13.59
78056;BME280;67666;55.862;49.094;2023-02-21T03:50:44;98394.03;;;25.30;13.25
78056;BME280;67666;55.862;49.094;2023-02-21T03:53:11;98399.03;;;25.21;12.96
78056;BME280;67666;55.862;49.094;2023-02-21T03:55:42;98383.88;;;25.51;13.63
78056;BME280;67666;55.862;49.094;2023-02-21T03:58:14;98390.59;;;25.43;13.36
78056;BME280;67666;55.862;49.094;2023-02-21T04:00:42;98388.09;;;25.54;13.32
78056;BME280;67666;55.862;49.094;2023-02-21T04:03:09;98396.28;;;25.49;13.26
78056;BME280;67666;55.862;49.094;2023-02-21T04:05:39;98388.00;;;25.55;12.87
78056;BME280;67666;55.862;49.094;2023-02-21T04:08:07;98391.06;;;25.35;13.32
78056;BME280;67666;55.862;49.094;2023-02-21T04:10:33;98386.19;;;25.56;13.14
78056;BME280;67666;55.862;49.094;2023-02-21T04:13:00;98381.50;;;25.34;12.93
78056;BME280;67666;55.862;49.094;2023-02-21T04:15:29;98381.63;;;25.32;13.04
78056;BME280;67666;55.862;49.094;2023-02-21T04:17:56;98379.25;;;25.01;13.23
78056;BME280;67666;55.862;49.094;2023-02-21T04:20:22;98383.22;;;25.08;13.54
78056;BME280;67666;55.862;49.094;2023-02-21T04:22:53;98376.25;;;25.07;13.40
78056;BME280;67666;55.862;49.094;2023-02-21T04:25:20;98382.03;;;24.85;14.35
78056;BME280;67666;55.862;49.094;2023-02-21T04:27:51;98376.91;;;24.12;15.59
78056;BME280;67666;55.862;49.094;2023-02-21T04:30:17;98381.19;;;23.85;15.97
78056;BME280;67666;55.862;49.094;2023-02-21T04:32:44;98372.19;;;23.74;16.42
78056;BME280;67666;55.862;49.094;2023-02-21T04:35:13;98370.09;;;23.65;16.48
78056;BME280;67666;55.862;49.094;2023-02-21T04:37:41;98368.25;;;23.51;17.02
78056;BME280;67666;55.862;49.094;2023-02-21T04:40:11;98374.53;;;23.49;16.77
78056;BME280;67666;55.862;49.094;2023-02-21T04:42:37;98367.50;;;23.49;16.80
78056;BME280;67666;55.862;49.094;2023-02-21T04:45:04;98363.75;;;23.53;17.35
78056;BME280;67666;55.862;49.094;2023-02-21T04:47:31;98368.00;;;23.56;18.74
78056;BME280;67666;55.862;49.094;2023-02-21T04:49:57;98373.75;;;23.47;18.72
78056;BME280;67666;55.862;49.094;2023-02-21T04:52:24;98375.22;;;23.37;18.57
78056;BME280;67666;55.862;49.094;2023-02-21T04:54:50;98370.91;;;23.36;18.69
78056;BME280;67666;55.862;49.094;2023-02-21T04:57:17;98377.94;;;23.35;18.88
78056;BME280;67666;55.862;49.094;2023-02-21T04:59:43;98378.47;;;23.26;19.22
78056;BME280;67666;55.862;49.094;2023-02-21T05:02:09;98377.78;;;23.22;19.07
78056;BME280;67666;55.862;49.094;2023-02-21T05:04:36;98379.31;;;23.26;19.01
78056;BME280;67666;55.862;49.094;2023-02-21T05:07:03;98378.53;;;23.24;18.97
78056;BME280;67666;55.862;49.094;2023-02-21T05:09:30;98376.13;;;23.21;18.72
78056;BME280;67666;55.862;49.094;2023-02-21T05:11:56;98381.78;;;23.14;20.13
78056;BME280;67666;55.862;49.094;2023-02-21T05:14:23;98380.22;;;23.25;19.68
78056;BME280;67666;55.862;49.094;2023-02-21T05:16:49;98381.09;;;23.26;19.18
78056;BME280;67666;55.862;49.094;2023-02-21T05:19:20;98381.16;;;23.24;19.69
78056;BME280;67666;55.862;49.094;2023-02-21T05:21:56;98377.69;;;23.24;20.09
78056;BME280;67666;55.862;49.094;2023-02-21T05:24:24;98380.50;;;23.21;19.81
78056;BME280;67666;55.862;49.094;2023-02-21T05:26:51;98380.22;;;23.25;19.73
78056;BME280;67666;55.862;49.094;2023-02-21T05:29:17;98371.03;;;23.18;19.96
78056;BME280;67666;55.862;49.094;2023-02-21T05:31:45;98371.81;;;23.20;19.56
78056;BME280;67666;55.862;49.094;2023-02-21T05:34:12;98363.38;;;23.15;19.10
78056;BME280;67666;55.862;49.094;2023-02-21T05:36:39;98364.22;;;23.16;19.36
78056;BME280;67666;55.862;49.094;2023-02-21T05:39:06;98364.47;;;23.11;18.83
78056;BME280;67666;55.862;49.094;2023-02-21T05:41:33;98352.22;;;23.12;18.66
78056;BME280;67666;55.862;49.094;2023-02-21T05:44:02;98356.63;;;23.11;18.69
78056;BME280;67666;55.862;49.094;2023-02-21T05:46:33;98352.47;;;23.07;18.20
78056;BME280;67666;55.862;49.094;2023-02-21T05:49:02;98355.69;;;23.12;18.40
78056;BME280;67666;55.862;49.094;2023-02-21T05:51:36;98357.56;;;23.10;18.19
78056;BME280;67666;55.862;49.094;2023-02-21T05:54:04;98355.94;;;23.08;18.16
78056;BME280;67666;55.862;49.094;2023-02-21T05:56:36;98349.84;;;23.07;18.07
78056;BME280;67666;55.862;49.094;2023-02-21T05:59:04;98348.84;;;23.10;17.78
78056;BME280;67666;55.862;49.094;2023-02-21T06:01:31;98343.53;;;23.11;17.73
78056;BME280;67666;55.862;49.094;2023-02-21T06:03:57;98350.69;;;23.08;17.47
78056;BME280;67666;55.862;49.094;2023-02-21T06:06:23;98347.81;;;23.12;17.14
78056;BME280;67666;55.862;49.094;2023-02-21T06:08:50;98358.28;;;23.12;17.51
78056;BME280;67666;55.862;49.094;2023-02-21T06:11:28;98345.94;;;23.14;17.04
78056;BME280;67666;55.862;49.094;2023-02-21T06:13:57;98342.50;;;23.14;17.23
78056;BME280;67666;55.862;49.094;2023-02-21T06:16:23;98338.59;;;23.21;16.70
78056;BME280;67666;55.862;49.094;2023-02-21T06:18:51;98341.97;;;23.23;16.56
78056;BME280;67666;55.862;49.094;2023-02-21T06:21:18;98341.13;;;23.22;16.91
78056;BME280;67666;55.862;49.094;2023-02-21T06:23:45;98340.38;;;23.20;16.73
78056;BME280;67666;55.862;49.094;2023-02-21T06:26:12;98341.13;;;23.22;16.13
78056;BME280;67666;55.862;49.094;2023-02-21T06:28:38;98339.50;;;23.20;16.20
78056;BME280;67666;55.862;49.094;2023-02-21T06:31:05;98340.38;;;23.20;16.46
78056;BME280;67666;55.862;49.094;2023-02-21T06:33:31;98338.69;;;23.19;16.23
78056;BME280;67666;55.862;49.094;2023-02-21T06:35:58;98330.22;;;23.14;16.46
78056;BME280;67666;55.862;49.094;2023-02-21T06:38:28;98341.13;;;23.22;16.12
78056;BME280;67666;55.862;49.094;2023-02-21T06:40:54;98327.69;;;23.28;16.18
78056;BME280;67666;55.862;49.094;2023-02-21T06:43:20;98334.59;;;23.30;16.09
78056;BME280;67666;55.862;49.094;2023-02-21T06:45:46;98329.25;;;23.31;15.79
78056;BME280;67666;55.862;49.094;2023-02-21T06:48:14;98330.97;;;23.32;15.85
78056;BME280;67666;55.862;49.094;2023-02-21T06:50:41;98328.72;;;23.26;15.78
78056;BME280;67666;55.862;49.094;2023-02-21T06:53:07;98327.31;;;23.35;15.87
78056;BME280;67666;55.862;49.094;2023-02-21T06:55:34;98330.69;;;23.37;15.41
78056;BME280;67666;55.862;49.094;2023-02-21T06:58:00;98319.56;;;23.33;15.72
78056;BME280;67666;55.862;49.094;2023-02-21T07:00:42;98318.25;;;23.26;15.90
78056;BME280;67666;55.862;49.094;2023-02-21T07:03:08;98316.53;;;23.25;15.43
78056;BME280;67666;55.862;49.094;2023-02-21T07:05:34;98320.50;;;23.32;15.37
78056;BME280;67666;55.862;49.094;2023-02-21T07:08:03;98322.31;;;23.46;15.22
78056;BME280;67666;55.862;49.094;2023-02-21T07:10:29;98325.50;;;23.51;15.34
78056;BME280;67666;55.862;49.094;2023-02-21T07:12:56;98318.38;;;23.53;15.23
78056;BME280;67666;55.862;49.094;2023-02-21T07:15:22;98312.13;;;23.56;15.03
78056;BME280;67666;55.862;49.094;2023-02-21T07:17:48;98317.38;;;23.56;15.10
78056;BME280;67666;55.862;49.094;2023-02-21T07:20:14;98311.00;;;23.60;15.22
78056;BME280;67666;55.862;49.094;2023-02-21T07:22:41;98305.34;;;23.67;14.46
78056;BME280;67666;55.862;49.094;2023-02-21T07:25:07;98304.88;;;23.75;14.80
78056;BME280;67666;55.862;49.094;2023-02-21T07:27:33;98305.16;;;23.70;14.69
78056;BME280;67666;55.862;49.094;2023-02-21T07:30:00;98307.03;;;23.68;14.86
78056;BME280;67666;55.862;49.094;2023-02-21T07:32:26;98300.38;;;23.63;14.80
78056;BME280;67666;55.862;49.094;2023-02-21T07:34:52;98303.56;;;23.68;14.29
78056;BME280;67666;55.862;49.094;2023-02-21T07:37:19;98310.69;;;23.66;14.45
78056;BME280;67666;55.862;49.094;2023-02-21T07:39:45;98304.31;;;23.70;14.56
78056;BME280;67666;55.862;49.094;2023-02-21T07:42:11;98311.16;;;23.72;14.30
78056;BME280;67666;55.862;49.094;2023-02-21T07:44:42;98301.03;;;23.80;14.43
78056;BME280;67666;55.862;49.094;2023-02-21T07:47:08;98303.38;;;23.85;14.00
78056;BME280;67666;55.862;49.094;2023-02-21T07:49:37;98308.72;;;23.84;14.12
78056;BME280;67666;55.862;49.094;2023-02-21T07:52:04;98303.88;;;23.77;14.19
78056;BME280;67666;55.862;49.094;2023-02-21T07:54:30;98310.13;;;23.75;13.92
78056;BME280;67666;55.862;49.094;2023-02-21T07:56:57;98299.38;;;23.79;14.43
78056;BME280;67666;55.862;49.094;2023-02-21T07:59:23;98303.75;;;23.79;14.01
78056;BME280;67666;55.862;49.094;2023-02-21T08:01:50;98295.06;;;23.78;13.96
78056;BME280;67666;55.862;49.094;2023-02-21T08:04:16;98301.97;;;23.79;14.18
78056;BME280;67666;55.862;49.094;2023-02-21T08:06:49;98299.38;;;23.79;13.86
78056;BME280;67666;55.862;49.094;2023-02-21T08:09:15;98297.47;;;23.82;13.86
78056;BME280;67666;55.862;49.094;2023-02-21T08:11:41;98296.91;;;23.76;14.05
78056;BME280;67666;55.862;49.094;2023-02-21T08:14:08;98293.94;;;23.83;14.01
78056;BME280;67666;55.862;49.094;2023-02-21T08:16:34;98296.06;;;23.76;13.80
78056;BME280;67666;55.862;49.094;2023-02-21T08:19:00;98301.25;;;23.77;13.92
78056;BME280;67666;55.862;49.094;2023-02-21T08:21:26;98299.63;;;23.75;13.93
78056;BME280;67666;55.862;49.094;2023-02-21T08:23:53;98296.28;;;23.73;13.72
78056;BME280;67666;55.862;49.094;2023-02-21T08:26:21;98297.22;;;23.72;13.58
78056;BME280;67666;55.862;49.094;2023-02-21T08:28:47;98295.50;;;23.71;13.71
78056;BME280;67666;55.862;49.094;2023-02-21T08:31:13;98292.81;;;23.72;13.65
78056;BME280;67666;55.862;49.094;2023-02-21T08:33:40;98294.28;;;23.76;13.84
78056;BME280;67666;55.862;49.094;2023-02-21T08:36:06;98291.88;;;23.73;13.52
78056;BME280;67666;55.862;49.094;2023-02-21T08:38:33;98288.31;;;23.74;13.55
78056;BME280;67666;55.862;49.094;2023-02-21T08:40:59;98291.13;;;23.71;13.89
78056;BME280;67666;55.862;49.094;2023-02-21T08:43:25;98289.16;;;23.75;13.59
78056;BME280;67666;55.862;49.094;2023-02-21T08:45:53;98283.06;;;23.74;13.16
78056;BME280;67666;55.862;49.094;2023-02-21T08:48:20;98285.59;;;23.76;13.29
78056;BME280;67666;55.862;49.094;2023-02-21T08:50:46;98286.63;;;23.73;13.68
78056;BME280;67666;55.862;49.094;2023-02-21T08:53:13;98283.06;;;23.74;13.50
78056;BME280;67666;55.862;49.094;2023-02-21T08:55:40;98284.09;;;23.72;13.29
78056;BME280;67666;55.862;49.094;2023-02-21T08:58:09;98282.13;;;23.75;13.53
78056;BME280;67666;55.862;49.094;2023-02-21T09:00:36;98282.06;;;23.77;13.22
78056;BME280;67666;55.862;49.094;2023-02-21T09:03:03;98274.72;;;23.82;13.37
78056;BME280;67666;55.862;49.094;2023-02-21T09:05:30;98283.63;;;23.94;13.04
78056;BME280;67666;55.862;49.094;2023-02-21T09:07:59;98284.09;;;24.00;12.91
78056;BME280;67666;55.862;49.094;2023-02-21T09:10:28;98291.88;;;24.02;13.15
78056;BME280;67666;55.862;49.094;2023-02-21T09:12:55;98296.56;;;23.97;13.36
78056;BME280;67666;55.862;49.094;2023-02-21T09:15:21;98294.47;;;23.88;13.02
78056;BME280;67666;55.862;49.094;2023-02-21T09:17:47;98288.31;;;23.74;13.10
78056;BME280;67666;55.862;49.094;2023-02-21T09:20:21;98286.16;;;23.67;13.46
78056;BME280;67666;55.862;49.094;2023-02-21T09:22:47;98282.09;;;23.61;13.28
78056;BME280;67666;55.862;49.094;2023-02-21T09:25:15;98273.78;;;23.54;13.39
78056;BME280;67666;55.862;49.094;2023-02-21T09:27:41;98276.09;;;23.59;13.39
78056;BME280;67666;55.862;49.094;2023-02-21T09:30:14;98281.53;;;23.56;13.70
78056;BME280;67666;55.862;49.094;2023-02-21T09:32:41;98276.94;;;23.60;13.21
78056;BME280;67666;55.862;49.094;2023-02-21T09:35:08;98275.34;;;23.57;13.14
78056;BME280;67666;55.862;49.094;2023-02-21T09:37:38;98270.28;;;23.54;13.22
78056;BME280;67666;55.862;49.094;2023-02-21T09:40:20;98273.09;;;23.51;13.21
78056;BME280;67666;55.862;49.094;2023-02-21T09:42:52;98273.94;;;23.51;13.71
78056;BME280;67666;55.862;49.094;2023-02-21T09:45:20;98274.69;;;23.53;13.41
78056;BME280;67666;55.862;49.094;2023-02-21T09:47:53;98275.50;;;23.54;13.24
78056;BME280;67666;55.862;49.094;2023-02-21T09:50:25;98277.63;;;23.63;12.87
78056;BME280;67666;55.862;49.094;2023-02-21T09:52:56;98274.00;;;23.66;13.09
78056;BME280;67666;55.862;49.094;2023-02-21T09:55:33;98267.25;;;23.76;13.19
78056;BME280;67666;55.862;49.094;2023-02-21T09:58:01;98274.09;;;23.78;13.00
78056;BME280;67666;55.862;49.094;2023-02-21T10:00:33;98276.81;;;23.77;12.71
78056;BME280;67666;55.862;49.094;2023-02-21T10:06:05;98271.28;;;23.67;12.87
78056;BME280;67666;55.862;49.094;2023-02-21T10:11:16;98272.38;;;23.63;12.74
78056;BME280;67666;55.862;49.094;2023-02-21T10:16:36;98258.88;;;23.55;13.07
78056;BME280;67666;55.862;49.094;2023-02-21T10:21:45;98267.13;;;23.49;13.61
78056;BME280;67666;55.862;49.094;2023-02-21T10:24:16;98263.56;;;23.50;13.75
78056;BME280;67666;55.862;49.094;2023-02-21T10:27:00;98263.19;;;23.56;13.43
78056;BME280;67666;55.862;49.094;2023-02-21T10:32:13;98267.22;;;23.62;13.86
78056;BME280;67666;55.862;49.094;2023-02-21T10:34:40;98271.63;;;23.61;14.06
78056;BME280;67666;55.862;49.094;2023-02-21T10:42:53;98278.72;;;23.59;13.87
78056;BME280;67666;55.862;49.094;2023-02-21T10:45:32;98274.31;;;23.60;14.00
78056;BME280;67666;55.862;49.094;2023-02-21T10:48:08;98272.56;;;23.60;13.86
78056;BME280;67666;55.862;49.094;2023-02-21T10:53:30;98271.63;;;23.61;14.13
78056;BME280;67666;55.862;49.094;2023-02-21T10:58:46;98275.06;;;23.62;14.05
78056;BME280;67666;55.862;49.094;2023-02-21T11:03:44;98273.94;;;23.51;14.68
78056;BME280;67666;55.862;49.094;2023-02-21T11:06:31;98266.44;;;23.60;14.74
78056;BME280;67666;55.862;49.094;2023-02-21T11:08:59;98266.31;;;23.63;15.11
78056;BME280;67666;55.862;49.094;2023-02-21T11:11:43;98272.63;;;23.59;14.83
78056;BME280;67666;55.862;49.094;2023-02-21T11:16:36;98272.81;;;23.56;14.84
78056;BME280;67666;55.862;49.094;2023-02-21T11:19:06;98272.25;;;23.50;14.59
78056;BME280;67666;55.862;49.094;2023-02-21T11:21:33;98277.59;;;23.49;14.52
78056;BME280;67666;55.862;49.094;2023-02-21T11:24:01;98285.47;;;23.49;14.63
78056;BME280;67666;55.862;49.094;2023-02-21T11:26:34;98277.75;;;23.46;15.06
78056;BME280;67666;55.862;49.094;2023-02-21T11:29:21;98279.53;;;23.45;15.07
78056;BME280;67666;55.862;49.094;2023-02-21T11:31:53;98281.44;;;23.43;15.69
78056;BME280;67666;55.862;49.094;2023-02-21T11:34:27;98281.22;;;23.46;16.03
78056;BME280;67666;55.862;49.094;2023-02-21T11:37:01;98290.13;;;23.44;16.79
78056;BME280;67666;55.862;49.094;2023-02-21T11:39:35;98281.69;;;23.39;16.60
78056;BME280;67666;55.862;49.094;2023-02-21T11:42:03;98288.78;;;23.37;16.74
78056;BME280;67666;55.862;49.094;2023-02-21T11:44:38;98285.88;;;23.41;16.78
78056;BME280;67666;55.862;49.094;2023-02-21T11:47:25;98279.53;;;23.45;17.16
78056;BME280;67666;55.862;49.094;2023-02-21T11:52:39;98281.53;;;23.56;17.42
78056;BME280;67666;55.862;49.094;2023-02-21T11:55:14;98285.50;;;23.63;17.31
78056;BME280;67666;55.862;49.094;2023-02-21T11:57:44;98284.38;;;23.67;17.78
78056;BME280;67666;55.862;49.094;2023-02-21T12:00:36;98284.28;;;23.69;17.44
78056;BME280;67666;55.862;49.094;2023-02-21T12:03:24;98290.25;;;23.71;17.77
78056;BME280;67666;55.862;49.094;2023-02-21T12:06:24;98291.31;;;23.68;17.56
78056;BME280;67666;55.862;49.094;2023-02-21T12:17:54;98287.38;;;23.75;18.00
78056;BME280;67666;55.862;49.094;2023-02-21T12:20:49;98299.47;;;23.78;18.68
78056;BME280;67666;55.862;49.094;2023-02-21T12:37:48;98309.66;;;24.25;19.38
78056;BME280;67666;55.862;49.094;2023-02-21T12:43:23;98301.81;;;24.40;19.33
78056;BME280;67666;55.862;49.094;2023-02-21T12:46:02;98309.84;;;24.51;19.39
78056;BME280;67666;55.862;49.094;2023-02-21T12:48:43;98293.34;;;24.49;19.10
78056;BME280;67666;55.862;49.094;2023-02-21T12:51:19;98290.16;;;24.44;19.14
78056;BME280;67666;55.862;49.094;2023-02-21T12:53:54;98287.25;;;24.34;19.45
78056;BME280;67666;55.862;49.094;2023-02-21T12:56:34;98287.91;;;24.38;19.19
78056;BME280;67666;55.862;49.094;2023-02-21T12:59:19;98285.41;;;24.36;18.85
78056;BME280;67666;55.862;49.094;2023-02-21T13:01:54;98282.00;;;24.34;18.53
78056;BME280;67666;55.862;49.094;2023-02-21T13:07:13;98290.28;;;24.28;18.39
78056;BME280;67666;55.862;49.094;2023-02-21T13:12:45;98284.38;;;24.24;17.81
78056;BME280;67666;55.862;49.094;2023-02-21T13:15:18;98282.75;;;24.22;17.58
78056;BME280;67666;55.862;49.094;2023-02-21T13:18:00;98287.16;;;24.21;17.89
78056;BME280;67666;55.862;49.094;2023-02-21T13:20:39;98287.16;;;24.21;17.54
78056;BME280;67666;55.862;49.094;2023-02-21T13:29:27;98293.56;;;24.17;17.54
78056;BME280;67666;55.862;49.094;2023-02-21T13:32:14;98300.66;;;24.15;17.57
78056;BME280;67666;55.862;49.094;2023-02-21T13:34:52;98298.69;;;24.04;17.64
78056;BME280;67666;55.862;49.094;2023-02-21T13:37:23;98297.56;;;24.09;18.01
78056;BME280;67666;55.862;49.094;2023-02-21T13:39:53;98299.91;;;24.13;17.99
78056;BME280;67666;55.862;49.094;2023-02-21T13:42:23;98300.94;;;24.11;17.88
78056;BME280;67666;55.862;49.094;2023-02-21T13:53:19;98299.81;;;24.29;17.89
78056;BME280;67666;55.862;49.094;2023-02-21T13:56:13;98301.59;;;24.28;18.12
78056;BME280;67666;55.862;49.094;2023-02-21T13:58:48;98300.66;;;24.29;17.98
78056;BME280;67666;55.862;49.094;2023-02-21T14:03:52;98305.13;;;24.27;18.53
78056;BME280;67666;55.862;49.094;2023-02-21T14:06:34;98305.91;;;24.29;18.40
78056;BME280;67666;55.862;49.094;2023-02-21T14:09:12;98305.69;;;24.32;18.18
78056;BME280;67666;55.862;49.094;2023-02-21T14:11:47;98310.59;;;24.39;18.22
78056;BME280;67666;55.862;49.094;2023-02-21T14:14:33;98301.88;;;24.38;18.02
78056;BME280;67666;55.862;49.094;2023-02-21T14:17:03;98300.94;;;24.39;18.38
78056;BME280;67666;55.862;49.094;2023-02-21T14:19:42;98300.19;;;24.37;17.98
78056;BME280;67666;55.862;49.094;2023-02-21T14:22:16;98296.63;;;24.38;18.22
78056;BME280;67666;55.862;49.094;2023-02-21T14:24:48;98300.31;;;24.36;18.52
78056;BME280;67666;55.862;49.094;2023-02-21T14:32:46;98305.28;;;24.40;18.39
78056;BME280;67666;55.862;49.094;2023-02-21T14:37:44;98308.06;;;24.37;18.91
78056;BME280;67666;55.862;49.094;2023-02-21T14:43:27;98327.16;;;24.39;18.30
78056;BME280;67666;55.862;49.094;2023-02-21T15:02:37;98327.38;;;24.36;18.16
78056;BME280;67666;55.862;49.094;2023-02-21T15:05:28;98325.22;;;24.28;18.79
78056;BME280;67666;55.862;49.094;2023-02-21T15:08:17;98327.47;;;24.35;18.12
78056;BME280;67666;55.862;49.094;2023-02-21T15:10:46;98325.50;;;24.38;18.47
78056;BME280;67666;55.862;49.094;2023-02-21T15:15:57;98322.19;;;24.20;17.35
78056;BME280;67666;55.862;49.094;2023-02-21T15:21:15;98329.44;;;24.02;17.12
78056;BME280;67666;55.862;49.094;2023-02-21T15:23:45;98329.69;;;23.98;17.42
78056;BME280;67666;55.862;49.094;2023-02-21T15:26:21;98320.44;;;23.92;17.26
78056;BME280;67666;55.862;49.094;2023-02-21T15:29:17;98325.31;;;23.84;17.05
78056;BME280;67666;55.862;49.094;2023-02-21T15:31:53;98330.91;;;23.78;16.98
78056;BME280;67666;55.862;49.094;2023-02-21T15:34:29;98333.06;;;23.71;16.89
78056;BME280;67666;55.862;49.094;2023-02-21T15:39:35;98336.13;;;23.64;17.06
78056;BME280;67666;55.862;49.094;2023-02-21T15:42:06;98330.22;;;23.60;17.08
78056;BME280;67666;55.862;49.094;2023-02-21T15:44:46;98335.50;;;23.59;16.36
78056;BME280;67666;55.862;49.094;2023-02-21T15:47:18;98330.47;;;23.56;16.12
78056;BME280;67666;55.862;49.094;2023-02-21T15:52:35;98337.00;;;23.48;16.77
78056;BME280;67666;55.862;49.094;2023-02-21T16:05:54;98334.25;;;23.06;15.84
78056;BME280;67666;55.862;49.094;2023-02-21T16:08:21;98335.09;;;23.06;15.79
78056;BME280;67666;55.862;49.094;2023-02-21T16:10:48;98332.38;;;23.08;15.99